sensor_id;sensor_type;location;lat;lon;timestamp;P1;durP1;ratioP1;P2;durP2;ratioP2
49444;SDS011;35323;43.080;-81.378;2023-02-18T00:01:12;0.60;;;0.60;;
49444;SDS011;35323;43.080;-81.378;2023-02-18T00:03:40;0.52;;;0.52;;
49444;SDS011;35323;43.080;-81.378;2023-02-18T00:06:09;0.60;;;0.60;;
49444;SDS011;35323;43.080;-81.378;2023-02-18T00:08:37;0.82;;;0.82;;
49444;SDS011;35323;43.080;-81.378;2023-02-18T00:11:05;0.40;;;0.40;;
49444;SDS011;35323;43.080;-81.378;2023-02-18T00:13:33;0.77;;;0.77;;
49444;SDS011;35323;43.080;-81.378;2023-02-18T00:16:03;0.95;;;0.82;;
49444;SDS011;35323;43.080;-81.378;2023-02-18T00:18:33;0.40;;;0.40;;
49444;SDS011;35323;43.080;-81.378;2023-02-18T00:21:02;0.52;;;0.52;;
49444;SDS011;35323;43.080;-81.378;2023-02-18T00:23:30;0.73;;;0.73;;
49444;SDS011;35323;43.080;-81.378;2023-02-18T00:26:01;0.52;;;0.50;;
49444;SDS011;35323;43.080;-81.378;2023-02-18T00:28:29;0.60;;;0.60;;
49444;SDS011;35323;43.080;-81.378;2023-02-18T00:30:58;1.25;;;1.15;;
49444;SDS011;35323;43.080;-81.378;2023-02-18T00:33:26;1.20;;;0.80;;
49444;SDS011;35323;43.080;-81.378;2023-02-18T00:35:59;0.40;;;0.40;;
49444;SDS011;35323;43.080;-81.378;2023-02-18T00:46:27;0.50;;;0.50;;
49444;SDS011;35323;43.080;-81.378;2023-02-18T00:48:55;0.47;;;0.47;;
49444;SDS011;35323;43.080;-81.378;2023-02-18T00:51:24;0.50;;;0.50;;
49444;SDS011;35323;43.080;-81.378;2023-02-18T00:53:53;0.75;;;0.60;;
49444;SDS011;35323;43.080;-81.378;2023-02-18T01:10:16;0.50;;;0.50;;
49444;SDS011;35323;43.080;-81.378;2023-02-18T01:12:45;1.13;;;0.73;;
49444;SDS011;35323;43.080;-81.378;2023-02-18T01:15:14;0.40;;;0.40;;
49444;SDS011;35323;43.080;-81.378;2023-02-18T01:22:55;0.50;;;0.50;;
49444;SDS011;35323;43.080;-81.378;2023-02-18T01:44:52;0.50;;;0.50;;
49444;SDS011;35323;43.080;-81.378;2023-02-18T01:47:20;1.77;;;0.60;;
49444;SDS011;35323;43.080;-81.378;2023-02-18T01:49:49;0.60;;;0.60;;
49444;SDS011;35323;43.080;-81.378;2023-02-18T01:52:22;0.60;;;0.60;;
49444;SDS011;35323;43.080;-81.378;2023-02-18T01:54:52;0.85;;;0.85;;
49444;SDS011;35323;43.080;-81.378;2023-02-18T01:57:27;0.60;;;0.60;;
49444;SDS011;35323;43.080;-81.378;2023-02-18T02:02:32;0.82;;;0.70;;
49444;SDS011;35323;43.080;-81.378;2023-02-18T02:05:03;0.47;;;0.47;;
49444;SDS011;35323;43.080;-81.378;2023-02-18T02:07:31;0.70;;;0.70;;
49444;SDS011;35323;43.080;-81.378;2023-02-18T02:09:59;0.85;;;0.82;;
49444;SDS011;35323;43.080;-81.378;2023-02-18T02:17:27;0.52;;;0.52;;
49444;SDS011;35323;43.080;-81.378;2023-02-18T02:36:50;2.17;;;1.65;;
49444;SDS011;35323;43.080;-81.378;2023-02-18T02:44:49;0.80;;;0.80;;
49444;SDS011;35323;43.080;-81.378;2023-02-18T02:49:57;0.88;;;0.88;;
49444;SDS011;35323;43.080;-81.378;2023-02-18T02:52:30;0.73;;;0.73;;
49444;SDS011;35323;43.080;-81.378;2023-02-18T02:54:58;1.67;;;0.90;;
49444;SDS011;35323;43.080;-81.378;2023-02-18T03:00:00;0.73;;;0.73;;
49444;SDS011;35323;43.080;-81.378;2023-02-18T03:08:03;0.60;;;0.60;;
49444;SDS011;35323;43.080;-81.378;2023-02-18T03:10:40;2.92;;;0.85;;
49444;SDS011;35323;43.080;-81.378;2023-02-18T03:18:40;0.95;;;0.95;;
49444;SDS011;35323;43.080;-81.378;2023-02-18T03:21:29;2.10;;;0.88;;
49444;SDS011;35323;43.080;-81.378;2023-02-18T03:26:26;0.93;;;0.93;;
49444;SDS011;35323;43.080;-81.378;2023-02-18T03:28:57;0.88;;;0.80;;
49444;SDS011;35323;43.080;-81.378;2023-02-18T03:31:27;0.70;;;0.70;;
49444;SDS011;35323;43.080;-81.378;2023-02-18T03:34:00;1.35;;;1.15;;
49444;SDS011;35323;43.080;-81.378;2023-02-18T03:36:29;2.20;;;0.93;;
49444;SDS011;35323;43.080;-81.378;2023-02-18T03:39:04;2.63;;;1.80;;
49444;SDS011;35323;43.080;-81.378;2023-02-18T03:41:34;3.05;;;1.20;;
49444;SDS011;35323;43.080;-81.378;2023-02-18T03:44:04;1.80;;;1.70;;
49444;SDS011;35323;43.080;-81.378;2023-02-18T03:46:33;2.95;;;1.55;;
49444;SDS011;35323;43.080;-81.378;2023-02-18T03:49:01;1.33;;;1.23;;
49444;SDS011;35323;43.080;-81.378;2023-02-18T03:51:28;1.98;;;1.20;;
49444;SDS011;35323;43.080;-81.378;2023-02-18T03:53:56;1.17;;;0.73;;
49444;SDS011;35323;43.080;-81.378;2023-02-18T03:56:24;1.83;;;1.73;;
49444;SDS011;35323;43.080;-81.378;2023-02-18T03:58:52;1.15;;;1.10;;
49444;SDS011;35323;43.080;-81.378;2023-02-18T04:01:19;1.67;;;1.65;;
49444;SDS011;35323;43.080;-81.378;2023-02-18T04:03:47;1.20;;;1.20;;
49444;SDS011;35323;43.080;-81.378;2023-02-18T04:06:15;0.68;;;0.68;;
49444;SDS011;35323;43.080;-81.378;2023-02-18T04:08:42;2.88;;;0.73;;
49444;SDS011;35323;43.080;-81.378;2023-02-18T04:11:11;0.70;;;0.70;;
49444;SDS011;35323;43.080;-81.378;2023-02-18T04:13:38;0.90;;;0.80;;
49444;SDS011;35323;43.080;-81.378;2023-02-18T04:16:07;1.13;;;1.02;;
49444;SDS011;35323;43.080;-81.378;2023-02-18T04:18:35;1.13;;;1.05;;
49444;SDS011;35323;43.080;-81.378;2023-02-18T04:21:02;0.95;;;0.95;;
49444;SDS011;35323;43.080;-81.378;2023-02-18T04:23:32;0.65;;;0.65;;
49444;SDS011;35323;43.080;-81.378;2023-02-18T04:26:00;0.60;;;0.60;;
49444;SDS011;35323;43.080;-81.378;2023-02-18T04:28:29;0.70;;;0.70;;
49444;SDS011;35323;43.080;-81.378;2023-02-18T04:30:57;0.90;;;0.90;;
49444;SDS011;35323;43.080;-81.378;2023-02-18T04:33:25;1.83;;;0.93;;
49444;SDS011;35323;43.080;-81.378;2023-02-18T04:35:53;1.23;;;0.75;;
49444;SDS011;35323;43.080;-81.378;2023-02-18T04:38:21;0.90;;;0.90;;
49444;SDS011;35323;43.080;-81.378;2023-02-18T04:40:48;1.27;;;1.00;;
49444;SDS011;35323;43.080;-81.378;2023-02-18T04:43:16;1.08;;;1.08;;
49444;SDS011;35323;43.080;-81.378;2023-02-18T04:45:44;0.80;;;0.80;;
49444;SDS011;35323;43.080;-81.378;2023-02-18T04:48:11;0.70;;;0.70;;
49444;SDS011;35323;43.080;-81.378;2023-02-18T04:50:39;1.00;;;1.00;;
49444;SDS011;35323;43.080;-81.378;2023-02-18T04:53:07;1.00;;;1.00;;
49444;SDS011;35323;43.080;-81.378;2023-02-18T04:55:35;0.55;;;0.55;;
49444;SDS011;35323;43.080;-81.378;2023-02-18T04:58:03;0.75;;;0.75;;
49444;SDS011;35323;43.080;-81.378;2023-02-18T05:00:31;0.82;;;0.82;;
49444;SDS011;35323;43.080;-81.378;2023-02-18T05:02:58;1.45;;;1.27;;
49444;SDS011;35323;43.080;-81.378;2023-02-18T05:05:26;0.90;;;0.90;;
49444;SDS011;35323;43.080;-81.378;2023-02-18T05:07:54;0.60;;;0.60;;
49444;SDS011;35323;43.080;-81.378;2023-02-18T05:10:23;0.52;;;0.52;;
49444;SDS011;35323;43.080;-81.378;2023-02-18T05:12:51;4.47;;;0.80;;
49444;SDS011;35323;43.080;-81.378;2023-02-18T05:15:18;1.58;;;1.48;;
49444;SDS011;35323;43.080;-81.378;2023-02-18T05:17:46;1.83;;;1.20;;
49444;SDS011;35323;43.080;-81.378;2023-02-18T05:20:14;0.90;;;0.90;;
49444;SDS011;35323;43.080;-81.378;2023-02-18T05:22:42;0.90;;;0.90;;
49444;SDS011;35323;43.080;-81.378;2023-02-18T05:25:10;0.60;;;0.60;;
49444;SDS011;35323;43.080;-81.378;2023-02-18T05:27:39;0.70;;;0.70;;
49444;SDS011;35323;43.080;-81.378;2023-02-18T05:30:07;2.00;;;0.80;;
49444;SDS011;35323;43.080;-81.378;2023-02-18T05:32:35;1.98;;;1.77;;
49444;SDS011;35323;43.080;-81.378;2023-02-18T05:35:03;0.80;;;0.80;;
49444;SDS011;35323;43.080;-81.378;2023-02-18T05:37:31;0.98;;;0.98;;
49444;SDS011;35323;43.080;-81.378;2023-02-18T05:39:59;0.88;;;0.88;;
49444;SDS011;35323;43.080;-81.378;2023-02-18T05:42:27;0.60;;;0.60;;
49444;SDS011;35323;43.080;-81.378;2023-02-18T05:44:55;0.75;;;0.75;;
49444;SDS011;35323;43.080;-81.378;2023-02-18T05:47:23;0.80;;;0.80;;
49444;SDS011;35323;43.080;-81.378;2023-02-18T05:49:52;0.80;;;0.80;;
49444;SDS011;35323;43.080;-81.378;2023-02-18T05:52:21;1.45;;;1.30;;
49444;SDS011;35323;43.080;-81.378;2023-02-18T05:54:49;1.27;;;0.88;;
49444;SDS011;35323;43.080;-81.378;2023-02-18T05:57:17;1.95;;;1.30;;
49444;SDS011;35323;43.080;-81.378;2023-02-18T05:59:44;1.05;;;1.05;;
49444;SDS011;35323;43.080;-81.378;2023-02-18T06:02:12;1.20;;;1.15;;
49444;SDS011;35323;43.080;-81.378;2023-02-18T06:04:40;1.63;;;1.52;;
49444;SDS011;35323;43.080;-81.378;2023-02-18T06:07:07;0.70;;;0.70;;
49444;SDS011;35323;43.080;-81.378;2023-02-18T06:09:35;1.88;;;1.75;;
49444;SDS011;35323;43.080;-81.378;2023-02-18T06:12:07;0.70;;;0.70;;
49444;SDS011;35323;43.080;-81.378;2023-02-18T06:14:34;0.75;;;0.68;;
49444;SDS011;35323;43.080;-81.378;2023-02-18T06:17:06;2.63;;;1.13;;
49444;SDS011;35323;43.080;-81.378;2023-02-18T06:19:35;0.80;;;0.80;;
49444;SDS011;35323;43.080;-81.378;2023-02-18T06:22:04;0.70;;;0.70;;
49444;SDS011;35323;43.080;-81.378;2023-02-18T06:24:32;1.27;;;1.17;;
49444;SDS011;35323;43.080;-81.378;2023-02-18T06:27:01;0.80;;;0.80;;
49444;SDS011;35323;43.080;-81.378;2023-02-18T06:29:29;1.38;;;1.00;;
49444;SDS011;35323;43.080;-81.378;2023-02-18T06:31:58;1.00;;;1.00;;
49444;SDS011;35323;43.080;-81.378;2023-02-18T06:34:27;0.77;;;0.75;;
49444;SDS011;35323;43.080;-81.378;2023-02-18T06:36:56;0.75;;;0.75;;
49444;SDS011;35323;43.080;-81.378;2023-02-18T06:39:26;0.93;;;0.75;;
49444;SDS011;35323;43.080;-81.378;2023-02-18T06:41:54;0.68;;;0.68;;
49444;SDS011;35323;43.080;-81.378;2023-02-18T06:44:21;2.17;;;0.80;;
49444;SDS011;35323;43.080;-81.378;2023-02-18T06:46:49;1.33;;;1.25;;
49444;SDS011;35323;43.080;-81.378;2023-02-18T06:49:17;1.20;;;1.20;;
49444;SDS011;35323;43.080;-81.378;2023-02-18T06:51:44;1.52;;;1.00;;
49444;SDS011;35323;43.080;-81.378;2023-02-18T06:54:13;1.30;;;1.13;;
49444;SDS011;35323;43.080;-81.378;2023-02-18T07:07:28;2.65;;;1.45;;
49444;SDS011;35323;43.080;-81.378;2023-02-18T07:09:57;0.98;;;0.98;;
49444;SDS011;35323;43.080;-81.378;2023-02-18T07:12:25;3.35;;;1.10;;
49444;SDS011;35323;43.080;-81.378;2023-02-18T07:14:55;4.72;;;1.52;;
49444;SDS011;35323;43.080;-81.378;2023-02-18T07:17:25;3.90;;;1.33;;
49444;SDS011;35323;43.080;-81.378;2023-02-18T07:19:52;0.70;;;0.70;;
49444;SDS011;35323;43.080;-81.378;2023-02-18T07:22:23;1.00;;;1.00;;
49444;SDS011;35323;43.080;-81.378;2023-02-18T07:24:51;4.75;;;1.02;;
49444;SDS011;35323;43.080;-81.378;2023-02-18T07:27:19;1.35;;;0.85;;
49444;SDS011;35323;43.080;-81.378;2023-02-18T07:29:47;1.15;;;1.13;;
49444;SDS011;35323;43.080;-81.378;2023-02-18T07:32:16;0.63;;;0.63;;
49444;SDS011;35323;43.080;-81.378;2023-02-18T07:34:46;1.55;;;1.27;;
49444;SDS011;35323;43.080;-81.378;2023-02-18T07:37:14;2.40;;;1.13;;
49444;SDS011;35323;43.080;-81.378;2023-02-18T07:39:42;0.90;;;0.90;;
49444;SDS011;35323;43.080;-81.378;2023-02-18T07:42:11;1.48;;;1.38;;
49444;SDS011;35323;43.080;-81.378;2023-02-18T07:44:40;1.38;;;1.25;;
49444;SDS011;35323;43.080;-81.378;2023-02-18T07:47:09;1.27;;;1.27;;
49444;SDS011;35323;43.080;-81.378;2023-02-18T07:49:38;1.50;;;1.08;;
49444;SDS011;35323;43.080;-81.378;2023-02-18T07:52:06;4.57;;;1.65;;
49444;SDS011;35323;43.080;-81.378;2023-02-18T07:54:34;0.73;;;0.73;;
49444;SDS011;35323;43.080;-81.378;2023-02-18T07:57:04;3.00;;;1.40;;
49444;SDS011;35323;43.080;-81.378;2023-02-18T07:59:32;1.25;;;1.15;;
49444;SDS011;35323;43.080;-81.378;2023-02-18T08:02:00;2.35;;;1.40;;
49444;SDS011;35323;43.080;-81.378;2023-02-18T08:04:28;1.40;;;1.15;;
49444;SDS011;35323;43.080;-81.378;2023-02-18T08:06:55;2.13;;;1.65;;
49444;SDS011;35323;43.080;-81.378;2023-02-18T08:09:23;1.27;;;1.10;;
49444;SDS011;35323;43.080;-81.378;2023-02-18T08:11:53;0.93;;;0.93;;
49444;SDS011;35323;43.080;-81.378;2023-02-18T08:14:24;1.90;;;1.45;;
49444;SDS011;35323;43.080;-81.378;2023-02-18T08:16:52;2.00;;;1.55;;
49444;SDS011;35323;43.080;-81.378;2023-02-18T08:19:21;1.35;;;1.00;;
49444;SDS011;35323;43.080;-81.378;2023-02-18T08:21:49;0.75;;;0.75;;
49444;SDS011;35323;43.080;-81.378;2023-02-18T08:24:18;0.93;;;0.93;;
49444;SDS011;35323;43.080;-81.378;2023-02-18T08:26:45;3.08;;;2.17;;
49444;SDS011;35323;43.080;-81.378;2023-02-18T08:29:26;1.77;;;1.40;;
49444;SDS011;35323;43.080;-81.378;2023-02-18T08:31:53;2.28;;;1.30;;
49444;SDS011;35323;43.080;-81.378;2023-02-18T08:34:23;2.20;;;1.88;;
49444;SDS011;35323;43.080;-81.378;2023-02-18T08:36:51;2.05;;;1.30;;
49444;SDS011;35323;43.080;-81.378;2023-02-18T08:39:19;1.67;;;1.58;;
49444;SDS011;35323;43.080;-81.378;2023-02-18T08:41:46;2.55;;;1.13;;
49444;SDS011;35323;43.080;-81.378;2023-02-18T08:44:14;1.55;;;1.40;;
49444;SDS011;35323;43.080;-81.378;2023-02-18T08:52:09;1.05;;;1.00;;
49444;SDS011;35323;43.080;-81.378;2023-02-18T08:54:38;1.42;;;1.27;;
49444;SDS011;35323;43.080;-81.378;2023-02-18T08:57:06;2.05;;;1.40;;
49444;SDS011;35323;43.080;-81.378;2023-02-18T08:59:34;2.92;;;2.13;;
49444;SDS011;35323;43.080;-81.378;2023-02-18T09:02:03;4.13;;;1.23;;
49444;SDS011;35323;43.080;-81.378;2023-02-18T09:04:31;1.63;;;1.17;;
49444;SDS011;35323;43.080;-81.378;2023-02-18T09:09:35;4.32;;;2.28;;
49444;SDS011;35323;43.080;-81.378;2023-02-18T09:12:03;1.75;;;1.52;;
49444;SDS011;35323;43.080;-81.378;2023-02-18T09:14:31;1.52;;;1.35;;
49444;SDS011;35323;43.080;-81.378;2023-02-18T09:17:00;1.42;;;1.40;;
49444;SDS011;35323;43.080;-81.378;2023-02-18T09:19:27;1.52;;;1.42;;
49444;SDS011;35323;43.080;-81.378;2023-02-18T09:21:57;4.22;;;1.40;;
49444;SDS011;35323;43.080;-81.378;2023-02-18T09:24:26;3.90;;;1.98;;
49444;SDS011;35323;43.080;-81.378;2023-02-18T09:26:57;2.70;;;1.88;;
49444;SDS011;35323;43.080;-81.378;2023-02-18T09:29:24;1.63;;;1.50;;
49444;SDS011;35323;43.080;-81.378;2023-02-18T09:31:52;3.17;;;2.08;;
49444;SDS011;35323;43.080;-81.378;2023-02-18T09:34:20;1.73;;;1.63;;
49444;SDS011;35323;43.080;-81.378;2023-02-18T09:36:48;1.70;;;1.60;;
49444;SDS011;35323;43.080;-81.378;2023-02-18T09:39:16;1.55;;;1.10;;
49444;SDS011;35323;43.080;-81.378;2023-02-18T09:41:45;1.80;;;1.65;;
49444;SDS011;35323;43.080;-81.378;2023-02-18T09:44:31;2.33;;;2.13;;
49444;SDS011;35323;43.080;-81.378;2023-02-18T09:50:03;1.58;;;1.48;;
49444;SDS011;35323;43.080;-81.378;2023-02-18T09:52:34;1.67;;;1.52;;
49444;SDS011;35323;43.080;-81.378;2023-02-18T09:57:54;1.65;;;1.55;;
49444;SDS011;35323;43.080;-81.378;2023-02-18T10:00:32;1.38;;;1.33;;
49444;SDS011;35323;43.080;-81.378;2023-02-18T10:03:06;2.65;;;1.88;;
49444;SDS011;35323;43.080;-81.378;2023-02-18T10:05:34;2.45;;;2.17;;
49444;SDS011;35323;43.080;-81.378;2023-02-18T10:08:05;2.17;;;1.98;;
49444;SDS011;35323;43.080;-81.378;2023-02-18T10:10:41;2.63;;;1.73;;
49444;SDS011;35323;43.080;-81.378;2023-02-18T10:13:16;2.38;;;1.98;;
49444;SDS011;35323;43.080;-81.378;2023-02-18T10:15:45;1.58;;;1.10;;
49444;SDS011;35323;43.080;-81.378;2023-02-18T10:18:19;2.38;;;1.48;;
49444;SDS011;35323;43.080;-81.378;2023-02-18T10:20:49;2.17;;;1.42;;
49444;SDS011;35323;43.080;-81.378;2023-02-18T10:23:18;2.75;;;2.35;;
49444;SDS011;35323;43.080;-81.378;2023-02-18T10:25:46;2.78;;;2.58;;
49444;SDS011;35323;43.080;-81.378;2023-02-18T10:28:17;2.40;;;1.83;;
49444;SDS011;35323;43.080;-81.378;2023-02-18T10:30:47;3.47;;;1.52;;
49444;SDS011;35323;43.080;-81.378;2023-02-18T10:36:50;1.48;;;1.25;;
49444;SDS011;35323;43.080;-81.378;2023-02-18T10:54:59;2.33;;;2.03;;
49444;SDS011;35323;43.080;-81.378;2023-02-18T11:02:39;2.70;;;1.98;;
49444;SDS011;35323;43.080;-81.378;2023-02-18T11:05:25;3.53;;;2.25;;
49444;SDS011;35323;43.080;-81.378;2023-02-18T11:07:58;3.47;;;2.90;;
49444;SDS011;35323;43.080;-81.378;2023-02-18T11:10:28;2.15;;;1.90;;
49444;SDS011;35323;43.080;-81.378;2023-02-18T11:13:17;3.78;;;2.30;;
49444;SDS011;35323;43.080;-81.378;2023-02-18T11:15:56;4.05;;;2.22;;
49444;SDS011;35323;43.080;-81.378;2023-02-18T11:18:27;3.53;;;3.03;;
49444;SDS011;35323;43.080;-81.378;2023-02-18T11:21:00;3.03;;;2.67;;
49444;SDS011;35323;43.080;-81.378;2023-02-18T11:26:06;1.73;;;1.63;;
49444;SDS011;35323;43.080;-81.378;2023-02-18T11:28:49;3.00;;;2.28;;
49444;SDS011;35323;43.080;-81.378;2023-02-18T11:31:25;4.20;;;2.85;;
49444;SDS011;35323;43.080;-81.378;2023-02-18T11:33:57;2.92;;;2.10;;
49444;SDS011;35323;43.080;-81.378;2023-02-18T11:38:55;5.35;;;2.72;;
49444;SDS011;35323;43.080;-81.378;2023-02-18T11:44:07;4.63;;;2.25;;
49444;SDS011;35323;43.080;-81.378;2023-02-18T11:46:58;2.58;;;2.38;;
49444;SDS011;35323;43.080;-81.378;2023-02-18T11:49:28;3.03;;;2.55;;
49444;SDS011;35323;43.080;-81.378;2023-02-18T11:52:34;5.03;;;2.13;;
49444;SDS011;35323;43.080;-81.378;2023-02-18T11:57:31;2.47;;;1.88;;
49444;SDS011;35323;43.080;-81.378;2023-02-18T12:00:02;3.05;;;2.85;;
49444;SDS011;35323;43.080;-81.378;2023-02-18T18:11:13;2.13;;;1.95;;
49444;SDS011;35323;43.080;-81.378;2023-02-18T18:13:43;5.18;;;1.88;;
49444;SDS011;35323;43.080;-81.378;2023-02-18T18:16:12;2.60;;;2.33;;
49444;SDS011;35323;43.080;-81.378;2023-02-18T18:18:40;3.45;;;2.75;;
49444;SDS011;35323;43.080;-81.378;2023-02-18T18:21:13;4.18;;;3.38;;
49444;SDS011;35323;43.080;-81.378;2023-02-18T18:23:42;15.73;;;5.20;;
49444;SDS011;35323;43.080;-81.378;2023-02-18T18:26:09;4.43;;;3.03;;
49444;SDS011;35323;43.080;-81.378;2023-02-18T18:28:37;4.88;;;3.95;;
49444;SDS011;35323;43.080;-81.378;2023-02-18T18:31:05;5.85;;;3.08;;
49444;SDS011;35323;43.080;-81.378;2023-02-18T18:33:35;5.80;;;3.22;;
49444;SDS011;35323;43.080;-81.378;2023-02-18T18:36:06;3.13;;;2.78;;
49444;SDS011;35323;43.080;-81.378;2023-02-18T18:38:34;6.10;;;2.55;;
49444;SDS011;35323;43.080;-81.378;2023-02-18T18:41:02;2.60;;;2.40;;
49444;SDS011;35323;43.080;-81.378;2023-02-18T18:43:30;5.40;;;2.60;;
49444;SDS011;35323;43.080;-81.378;2023-02-18T18:45:58;6.97;;;3.38;;
49444;SDS011;35323;43.080;-81.378;2023-02-18T18:48:28;7.30;;;3.03;;
49444;SDS011;35323;43.080;-81.378;2023-02-18T18:50:57;5.90;;;2.83;;
49444;SDS011;35323;43.080;-81.378;2023-02-18T18:53:28;3.25;;;2.53;;
49444;SDS011;35323;43.080;-81.378;2023-02-18T18:55:58;8.05;;;3.90;;
49444;SDS011;35323;43.080;-81.378;2023-02-18T18:58:27;4.68;;;2.53;;
49444;SDS011;35323;43.080;-81.378;2023-02-18T19:00:56;3.67;;;2.53;;
49444;SDS011;35323;43.080;-81.378;2023-02-18T19:03:24;3.55;;;3.25;;
49444;SDS011;35323;43.080;-81.378;2023-02-18T19:05:54;3.58;;;3.10;;
49444;SDS011;35323;43.080;-81.378;2023-02-18T19:08:22;5.18;;;3.65;;
49444;SDS011;35323;43.080;-81.378;2023-02-18T19:10:51;7.10;;;5.30;;
49444;SDS011;35323;43.080;-81.378;2023-02-18T19:13:22;10.07;;;5.85;;
49444;SDS011;35323;43.080;-81.378;2023-02-18T19:15:52;3.33;;;3.03;;
49444;SDS011;35323;43.080;-81.378;2023-02-18T19:18:26;3.35;;;2.67;;
49444;SDS011;35323;43.080;-81.378;2023-02-18T19:20:55;3.08;;;2.40;;
49444;SDS011;35323;43.080;-81.378;2023-02-18T19:23:23;3.22;;;2.40;;
49444;SDS011;35323;43.080;-81.378;2023-02-18T19:25:51;8.02;;;3.40;;
49444;SDS011;35323;43.080;-81.378;2023-02-18T19:28:19;3.55;;;2.70;;
49444;SDS011;35323;43.080;-81.378;2023-02-18T19:30:47;5.03;;;3.05;;
49444;SDS011;35323;43.080;-81.378;2023-02-18T19:33:15;3.42;;;2.70;;
49444;SDS011;35323;43.080;-81.378;2023-02-18T19:35:43;4.00;;;2.72;;
49444;SDS011;35323;43.080;-81.378;2023-02-18T19:38:12;6.32;;;2.75;;
49444;SDS011;35323;43.080;-81.378;2023-02-18T19:40:40;5.53;;;3.10;;
49444;SDS011;35323;43.080;-81.378;2023-02-18T19:43:10;3.22;;;2.92;;
49444;SDS011;35323;43.080;-81.378;2023-02-18T19:45:39;6.45;;;2.72;;
49444;SDS011;35323;43.080;-81.378;2023-02-18T19:48:10;4.30;;;2.53;;
49444;SDS011;35323;43.080;-81.378;2023-02-18T19:50:38;3.13;;;2.85;;
49444;SDS011;35323;43.080;-81.378;2023-02-18T19:53:07;4.80;;;2.67;;
49444;SDS011;35323;43.080;-81.378;2023-02-18T19:55:35;7.70;;;2.72;;
49444;SDS011;35323;43.080;-81.378;2023-02-18T19:58:03;7.20;;;3.75;;
49444;SDS011;35323;43.080;-81.378;2023-02-18T20:00:31;4.95;;;3.10;;
49444;SDS011;35323;43.080;-81.378;2023-02-18T20:02:58;4.60;;;3.45;;
49444;SDS011;35323;43.080;-81.378;2023-02-18T20:05:26;8.98;;;2.92;;
49444;SDS011;35323;43.080;-81.378;2023-02-18T20:07:55;4.15;;;3.00;;
49444;SDS011;35323;43.080;-81.378;2023-02-18T20:10:24;7.90;;;3.20;;
49444;SDS011;35323;43.080;-81.378;2023-02-18T20:12:52;2.60;;;2.40;;
49444;SDS011;35323;43.080;-81.378;2023-02-18T20:15:20;4.90;;;2.58;;
49444;SDS011;35323;43.080;-81.378;2023-02-18T20:17:49;6.25;;;2.20;;
49444;SDS011;35323;43.080;-81.378;2023-02-18T20:20:17;2.92;;;2.58;;
49444;SDS011;35323;43.080;-81.378;2023-02-18T20:22:46;5.32;;;2.80;;
49444;SDS011;35323;43.080;-81.378;2023-02-18T20:25:14;3.42;;;2.75;;
49444;SDS011;35323;43.080;-81.378;2023-02-18T20:27:43;2.35;;;1.90;;
49444;SDS011;35323;43.080;-81.378;2023-02-18T20:30:26;3.75;;;3.22;;
49444;SDS011;35323;43.080;-81.378;2023-02-18T20:32:54;4.20;;;2.22;;
49444;SDS011;35323;43.080;-81.378;2023-02-18T20:35:22;4.57;;;3.35;;
49444;SDS011;35323;43.080;-81.378;2023-02-18T20:37:51;2.33;;;2.13;;
49444;SDS011;35323;43.080;-81.378;2023-02-18T20:40:18;8.63;;;1.90;;
49444;SDS011;35323;43.080;-81.378;2023-02-18T20:42:46;5.22;;;3.30;;
49444;SDS011;35323;43.080;-81.378;2023-02-18T20:45:13;7.43;;;2.47;;
49444;SDS011;35323;43.080;-81.378;2023-02-18T20:47:42;3.50;;;3.20;;
49444;SDS011;35323;43.080;-81.378;2023-02-18T20:50:09;3.10;;;2.80;;
49444;SDS011;35323;43.080;-81.378;2023-02-18T20:52:38;5.63;;;2.78;;
49444;SDS011;35323;43.080;-81.378;2023-02-18T20:55:07;3.30;;;1.80;;
49444;SDS011;35323;43.080;-81.378;2023-02-18T20:57:35;5.20;;;3.05;;
49444;SDS011;35323;43.080;-81.378;2023-02-18T21:00:03;7.72;;;3.50;;
49444;SDS011;35323;43.080;-81.378;2023-02-18T21:02:31;3.10;;;2.50;;
49444;SDS011;35323;43.080;-81.378;2023-02-18T21:04:59;7.20;;;6.30;;
49444;SDS011;35323;43.080;-81.378;2023-02-18T21:07:27;8.07;;;5.68;;
49444;SDS011;35323;43.080;-81.378;2023-02-18T21:09:55;9.80;;;5.97;;
49444;SDS011;35323;43.080;-81.378;2023-02-18T21:12:23;4.25;;;3.10;;
49444;SDS011;35323;43.080;-81.378;2023-02-18T21:14:51;5.38;;;4.90;;
49444;SDS011;35323;43.080;-81.378;2023-02-18T21:17:18;9.48;;;4.70;;
49444;SDS011;35323;43.080;-81.378;2023-02-18T21:19:48;5.05;;;3.13;;
49444;SDS011;35323;43.080;-81.378;2023-02-18T21:22:15;7.03;;;4.07;;
49444;SDS011;35323;43.080;-81.378;2023-02-18T21:24:44;5.45;;;3.10;;
49444;SDS011;35323;43.080;-81.378;2023-02-18T21:27:11;5.43;;;4.28;;
49444;SDS011;35323;43.080;-81.378;2023-02-18T21:29:39;4.43;;;3.70;;
49444;SDS011;35323;43.080;-81.378;2023-02-18T21:32:07;3.10;;;2.45;;
49444;SDS011;35323;43.080;-81.378;2023-02-18T21:34:35;4.38;;;3.72;;
49444;SDS011;35323;43.080;-81.378;2023-02-18T21:37:03;2.90;;;2.30;;
49444;SDS011;35323;43.080;-81.378;2023-02-18T21:39:32;3.95;;;3.17;;
49444;SDS011;35323;43.080;-81.378;2023-02-18T21:42:02;3.38;;;3.08;;
49444;SDS011;35323;43.080;-81.378;2023-02-18T21:44:31;7.07;;;3.47;;
49444;SDS011;35323;43.080;-81.378;2023-02-18T21:47:08;1.67;;;1.58;;
49444;SDS011;35323;43.080;-81.378;2023-02-18T21:49:35;2.53;;;2.28;;
49444;SDS011;35323;43.080;-81.378;2023-02-18T21:52:03;3.50;;;2.72;;
49444;SDS011;35323;43.080;-81.378;2023-02-18T21:54:38;3.55;;;2.22;;
49444;SDS011;35323;43.080;-81.378;2023-02-18T21:57:17;5.55;;;2.42;;
49444;SDS011;35323;43.080;-81.378;2023-02-18T22:00:01;3.00;;;2.47;;
49444;SDS011;35323;43.080;-81.378;2023-02-18T22:02:45;3.00;;;2.63;;
49444;SDS011;35323;43.080;-81.378;2023-02-18T22:05:16;6.70;;;3.17;;
49444;SDS011;35323;43.080;-81.378;2023-02-18T22:07:48;6.03;;;2.60;;
49444;SDS011;35323;43.080;-81.378;2023-02-18T22:10:19;4.93;;;3.55;;
49444;SDS011;35323;43.080;-81.378;2023-02-18T22:12:55;4.05;;;2.22;;
49444;SDS011;35323;43.080;-81.378;2023-02-18T22:15:24;3.53;;;2.67;;
49444;SDS011;35323;43.080;-81.378;2023-02-18T22:17:55;3.25;;;2.95;;
49444;SDS011;35323;43.080;-81.378;2023-02-18T22:20:24;6.97;;;2.97;;
49444;SDS011;35323;43.080;-81.378;2023-02-18T22:22:52;3.63;;;3.00;;
49444;SDS011;35323;43.080;-81.378;2023-02-18T22:25:23;8.85;;;2.70;;
49444;SDS011;35323;43.080;-81.378;2023-02-18T22:28:03;6.20;;;2.08;;
49444;SDS011;35323;43.080;-81.378;2023-02-18T22:30:34;3.50;;;2.90;;
49444;SDS011;35323;43.080;-81.378;2023-02-18T22:33:02;4.38;;;2.22;;
49444;SDS011;35323;43.080;-81.378;2023-02-18T22:35:34;3.72;;;2.92;;
49444;SDS011;35323;43.080;-81.378;2023-02-18T22:38:02;6.40;;;3.80;;
49444;SDS011;35323;43.080;-81.378;2023-02-18T22:40:30;2.92;;;2.42;;
49444;SDS011;35323;43.080;-81.378;2023-02-18T22:43:00;3.50;;;2.45;;
49444;SDS011;35323;43.080;-81.378;2023-02-18T22:45:28;4.32;;;2.67;;
49444;SDS011;35323;43.080;-81.378;2023-02-18T22:47:57;4.78;;;2.88;;
49444;SDS011;35323;43.080;-81.378;2023-02-18T22:50:26;3.10;;;2.35;;
49444;SDS011;35323;43.080;-81.378;2023-02-18T22:52:54;6.30;;;2.33;;
49444;SDS011;35323;43.080;-81.378;2023-02-18T22:55:22;2.70;;;2.50;;
49444;SDS011;35323;43.080;-81.378;2023-02-18T22:57:49;3.65;;;2.63;;
49444;SDS011;35323;43.080;-81.378;2023-02-18T23:00:21;5.13;;;2.08;;
49444;SDS011;35323;43.080;-81.378;2023-02-18T23:02:49;5.18;;;2.78;;
49444;SDS011;35323;43.080;-81.378;2023-02-18T23:05:18;5.38;;;2.30;;
49444;SDS011;35323;43.080;-81.378;2023-02-18T23:07:48;2.92;;;2.50;;
49444;SDS011;35323;43.080;-81.378;2023-02-18T23:10:16;4.78;;;3.13;;
49444;SDS011;35323;43.080;-81.378;2023-02-18T23:12:46;5.10;;;2.88;;
49444;SDS011;35323;43.080;-81.378;2023-02-18T23:15:13;3.70;;;3.10;;
49444;SDS011;35323;43.080;-81.378;2023-02-18T23:17:42;2.90;;;2.58;;